createdAt,value
2022-12-03T00:01:52.216Z,24.60
2022-12-03T00:04:20.699Z,24.90
2022-12-03T00:06:49.141Z,22.60
2022-12-03T00:09:17.865Z,24.87
2022-12-03T00:11:46.163Z,24.47
2022-12-03T00:14:14.682Z,24.30
2022-12-03T00:16:44.602Z,24.50
2022-12-03T00:19:13.317Z,23.93
2022-12-03T00:21:41.785Z,23.77
2022-12-03T00:24:10.478Z,25.37
2022-12-03T00:26:38.800Z,23.63
2022-12-03T00:29:07.521Z,23.00
2022-12-03T00:31:36.027Z,23.13
2022-12-03T00:34:05.821Z,23.77
2022-12-03T00:36:34.290Z,23.20
2022-12-03T00:39:02.587Z,22.67
2022-12-03T00:41:31.011Z,21.93
2022-12-03T00:43:59.341Z,23.33
2022-12-03T00:46:28.217Z,23.63
2022-12-03T00:48:56.621Z,23.50
2022-12-03T00:51:26.374Z,23.13
2022-12-03T00:53:54.770Z,23.60
2022-12-03T00:56:23.369Z,22.50
2022-12-03T00:58:51.830Z,23.20
2022-12-03T01:01:20.575Z,23.13
2022-12-03T01:03:49.030Z,22.03
2022-12-03T01:06:17.463Z,23.20
2022-12-03T01:08:47.188Z,23.03
2022-12-03T01:11:30.552Z,22.50
2022-12-03T01:13:59.476Z,22.10
2022-12-03T01:16:28.039Z,22.33
2022-12-03T01:18:56.456Z,23.23
2022-12-03T01:21:24.916Z,22.03
2022-12-03T01:23:54.738Z,23.40
2022-12-03T01:26:23.489Z,22.80
2022-12-03T01:28:51.853Z,21.63
2022-12-03T01:31:43.641Z,22.47
2022-12-03T01:34:12.083Z,22.10
2022-12-03T01:36:40.626Z,22.30
2022-12-03T01:39:10.630Z,22.13
2022-12-03T01:41:40.118Z,21.97
2022-12-03T01:44:19.185Z,23.00
2022-12-03T01:46:49.181Z,21.90
2022-12-03T01:49:21.812Z,22.23
2022-12-03T01:51:53.581Z,21.93
2022-12-03T01:54:30.934Z,21.30
2022-12-03T01:57:00.047Z,22.10
2022-12-03T01:59:35.470Z,22.37
2022-12-03T02:02:14.113Z,22.17
2022-12-03T02:04:42.899Z,21.77
2022-12-03T02:07:24.602Z,22.77
2022-12-03T02:09:56.261Z,21.23
2022-12-03T02:12:32.006Z,21.90
2022-12-03T02:15:01.466Z,21.43
2022-12-03T02:17:30.395Z,22.87
2022-12-03T02:20:01.699Z,22.40
2022-12-03T02:22:42.481Z,23.17
2022-12-03T02:25:22.237Z,22.17
2022-12-03T02:27:51.916Z,23.37
2022-12-03T02:30:23.838Z,22.27
2022-12-03T02:32:54.273Z,21.77
2022-12-03T02:35:25.834Z,22.27
2022-12-03T02:38:00.230Z,22.40
2022-12-03T02:40:33.657Z,21.27
2022-12-03T02:43:03.881Z,20.63
2022-12-03T02:45:37.758Z,21.10
2022-12-03T02:48:11.960Z,18.50
2022-12-03T02:50:45.048Z,18.67
2022-12-03T02:53:18.834Z,19.03
2022-12-03T02:55:50.150Z,19.90
2022-12-03T02:58:19.256Z,18.37
2022-12-03T03:00:49.442Z,18.97
2022-12-03T03:03:19.906Z,19.57
2022-12-03T03:05:49.964Z,19.33
2022-12-03T03:08:19.845Z,18.60
2022-12-03T03:10:50.822Z,18.93
2022-12-03T03:13:21.523Z,19.87
2022-12-03T03:15:50.476Z,20.20
2022-12-03T03:18:20.025Z,18.63
2022-12-03T03:20:48.522Z,19.00
2022-12-03T03:23:20.675Z,18.97
2022-12-03T03:25:57.378Z,19.53
2022-12-03T03:28:27.657Z,20.13
2022-12-03T03:30:57.256Z,19.70
2022-12-03T03:33:26.067Z,19.07
2022-12-03T03:35:55.563Z,19.70
2022-12-03T03:38:25.765Z,19.27
2022-12-03T03:40:57.451Z,20.17
2022-12-03T03:43:26.667Z,20.80
2022-12-03T03:45:55.766Z,19.50
2022-12-03T03:48:24.673Z,19.93
2022-12-03T03:50:54.222Z,20.27
2022-12-03T03:53:24.269Z,20.07
2022-12-03T03:55:53.293Z,20.47
2022-12-03T03:58:23.390Z,20.43
2022-12-03T04:00:52.792Z,20.83
2022-12-03T04:03:21.228Z,20.97
2022-12-03T04:05:51.000Z,20.40
2022-12-03T04:08:19.509Z,20.43
2022-12-03T04:11:05.413Z,21.10
2022-12-03T04:13:35.471Z,21.00
2022-12-03T04:16:03.835Z,19.87
2022-12-03T04:18:44.394Z,20.97
2022-12-03T04:21:32.022Z,20.03
2022-12-03T04:24:00.826Z,20.07
2022-12-03T04:26:47.006Z,20.33
2022-12-03T04:29:21.130Z,21.50
2022-12-03T04:32:07.211Z,21.00
2022-12-03T04:34:53.406Z,21.07
2022-12-03T04:37:22.075Z,20.77
2022-12-03T04:39:50.428Z,20.90
2022-12-03T04:42:18.744Z,21.77
2022-12-03T04:44:48.429Z,22.20
2022-12-03T04:47:19.334Z,21.63
2022-12-03T04:49:50.788Z,21.03
2022-12-03T04:52:21.491Z,21.13
2022-12-03T04:54:49.805Z,19.90
2022-12-03T04:57:18.126Z,20.43
2022-12-03T04:59:47.819Z,21.53
2022-12-03T05:02:16.184Z,19.60
2022-12-03T05:04:44.506Z,21.00
2022-12-03T05:07:12.796Z,19.00
2022-12-03T05:09:41.132Z,20.37
2022-12-03T05:12:09.465Z,19.70
2022-12-03T05:14:38.097Z,18.27
2022-12-03T05:17:07.822Z,20.97
2022-12-03T05:19:53.773Z,20.03
2022-12-03T05:22:22.082Z,20.60
2022-12-03T05:24:50.494Z,21.27
2022-12-03T05:27:23.311Z,21.07
2022-12-03T05:29:52.569Z,21.83
2022-12-03T05:32:22.375Z,21.17
2022-12-03T05:34:51.104Z,21.47
2022-12-03T05:37:19.626Z,19.90
2022-12-03T05:39:47.982Z,20.60
2022-12-03T05:42:33.818Z,22.17
2022-12-03T05:45:02.432Z,21.03
2022-12-03T05:47:32.140Z,22.60
2022-12-03T05:50:00.482Z,21.43
2022-12-03T05:52:28.817Z,22.43
2022-12-03T05:54:57.135Z,22.40
2022-12-03T05:57:25.479Z,21.07
2022-12-03T05:59:54.206Z,21.50
2022-12-03T06:02:22.908Z,20.90
2022-12-03T06:04:52.819Z,21.63
2022-12-03T06:07:21.329Z,21.77
2022-12-03T06:09:49.656Z,20.33
2022-12-03T06:12:18.084Z,19.87
2022-12-03T06:14:46.479Z,20.23
2022-12-03T06:17:15.187Z,19.77
2022-12-03T06:19:43.535Z,19.47
2022-12-03T06:22:14.482Z,19.30
2022-12-03T06:24:42.876Z,20.57
2022-12-03T06:27:11.307Z,19.90
2022-12-03T06:29:40.392Z,18.83
2022-12-03T06:32:08.816Z,19.77
2022-12-03T06:34:37.233Z,19.70
2022-12-03T06:37:05.718Z,19.27
2022-12-03T06:39:35.808Z,20.50
2022-12-03T06:42:04.241Z,19.07
2022-12-03T06:44:32.706Z,20.30
2022-12-03T06:47:01.390Z,21.17
2022-12-03T06:49:30.161Z,19.63
2022-12-03T06:51:58.451Z,19.60
2022-12-03T06:54:27.004Z,18.70
2022-12-03T06:56:57.056Z,18.27
2022-12-03T06:59:25.790Z,19.40
2022-12-03T07:01:54.151Z,19.60
2022-12-03T07:04:22.524Z,19.87
2022-12-03T07:06:51.118Z,18.87
2022-12-03T07:09:19.392Z,19.17
2022-12-03T07:11:47.704Z,18.93
2022-12-03T07:14:17.398Z,18.77
2022-12-03T07:16:45.908Z,18.60
2022-12-03T07:19:14.553Z,19.40
2022-12-03T07:21:42.972Z,17.70
2022-12-03T07:24:11.551Z,17.47
2022-12-03T07:26:40.045Z,18.20
2022-12-03T07:29:08.339Z,17.73
2022-12-03T07:31:38.109Z,17.93
2022-12-03T07:34:06.476Z,18.10
2022-12-03T07:36:35.792Z,18.77
2022-12-03T07:39:04.306Z,18.70
2022-12-03T07:41:32.704Z,18.57
2022-12-03T07:44:01.331Z,18.23
2022-12-03T07:46:29.739Z,18.43
2022-12-03T07:48:59.482Z,17.93
2022-12-03T07:51:32.179Z,18.07
2022-12-03T07:54:00.897Z,19.30
2022-12-03T07:56:29.240Z,20.33
2022-12-03T07:58:57.839Z,18.50
2022-12-03T08:01:26.755Z,19.63
2022-12-03T08:03:55.149Z,19.20
2022-12-03T08:06:26.064Z,19.47
2022-12-03T08:08:54.550Z,19.40
2022-12-03T08:11:23.327Z,19.33
2022-12-03T08:13:51.638Z,20.03
2022-12-03T08:16:23.048Z,18.30
2022-12-03T08:18:55.872Z,19.60
2022-12-03T08:21:26.667Z,19.43
2022-12-03T08:23:55.003Z,18.77
2022-12-03T08:26:29.169Z,18.07
2022-12-03T08:28:58.428Z,18.00
2022-12-03T08:31:33.139Z,18.47
2022-12-03T08:34:18.336Z,16.77
2022-12-03T08:36:49.432Z,17.90
2022-12-03T08:39:34.145Z,18.80
2022-12-03T08:42:31.720Z,16.20
2022-12-03T08:45:32.280Z,16.80
2022-12-03T08:48:04.262Z,17.53
2022-12-03T08:50:37.321Z,17.07
2022-12-03T08:53:26.969Z,19.77
2022-12-03T08:55:58.296Z,18.10
2022-12-03T08:58:39.193Z,19.20
2022-12-03T09:01:32.664Z,18.73
2022-12-03T09:04:22.518Z,18.67
2022-12-03T09:06:51.765Z,18.40
2022-12-03T09:09:22.011Z,18.83
2022-12-03T09:11:50.956Z,19.30
2022-12-03T09:14:21.262Z,18.60
2022-12-03T09:16:50.665Z,17.50
2022-12-03T09:19:19.561Z,18.13
2022-12-03T09:21:47.875Z,17.63
2022-12-03T09:24:16.545Z,17.77
2022-12-03T09:26:46.390Z,17.67
2022-12-03T09:29:14.666Z,18.07
2022-12-03T09:31:43.072Z,16.67
2022-12-03T09:34:12.408Z,17.23
2022-12-03T09:36:40.817Z,17.73
2022-12-03T09:39:09.182Z,17.13
2022-12-03T09:41:37.966Z,18.67
2022-12-03T09:44:12.264Z,17.50
2022-12-03T09:46:49.139Z,17.87
2022-12-03T09:49:19.980Z,19.60
2022-12-03T09:51:48.773Z,17.93
2022-12-03T09:54:25.947Z,19.30
2022-12-03T09:56:56.472Z,18.30
2022-12-03T09:59:31.441Z,18.80
2022-12-03T10:02:01.087Z,19.83
2022-12-03T10:04:30.950Z,18.17
2022-12-03T10:07:00.367Z,18.70
2022-12-03T10:09:31.460Z,18.40
2022-12-03T10:12:01.300Z,19.13
2022-12-03T10:14:32.179Z,19.57
2022-12-03T10:17:00.975Z,18.27
2022-12-03T10:19:32.675Z,20.20
2022-12-03T10:22:01.357Z,19.90
2022-12-03T10:24:33.443Z,18.70
2022-12-03T10:27:04.198Z,18.97
2022-12-03T10:29:36.043Z,19.17
2022-12-03T10:32:07.623Z,18.97
2022-12-03T10:34:38.871Z,18.67
2022-12-03T10:37:14.982Z,19.10
2022-12-03T10:40:05.301Z,18.23
2022-12-03T10:42:36.048Z,19.60
2022-12-03T10:45:26.712Z,19.73
2022-12-03T10:48:08.332Z,19.77
2022-12-03T10:50:37.257Z,20.97
2022-12-03T10:53:06.109Z,19.57
2022-12-03T10:55:41.017Z,21.17
2022-12-03T10:58:21.732Z,18.20
2022-12-03T11:00:53.717Z,19.47
2022-12-03T11:03:24.993Z,19.37
2022-12-03T11:05:56.008Z,19.17
2022-12-03T11:08:28.847Z,19.77
2022-12-03T11:10:59.823Z,20.47
2022-12-03T11:13:52.315Z,18.00
2022-12-03T11:17:09.229Z,19.10
2022-12-03T11:19:48.832Z,18.87
2022-12-03T11:22:46.292Z,17.97
2022-12-03T11:25:56.623Z,17.83
2022-12-03T11:28:52.559Z,17.70
2022-12-03T11:31:42.626Z,17.40
2022-12-03T11:34:51.482Z,16.73
2022-12-03T11:37:25.596Z,17.33
2022-12-03T11:40:39.064Z,18.33
2022-12-03T11:43:11.963Z,18.00
2022-12-03T11:45:41.932Z,19.60
2022-12-03T11:48:16.333Z,18.63
2022-12-03T11:50:52.817Z,17.67
2022-12-03T11:53:24.670Z,18.80
2022-12-03T11:56:06.561Z,19.73
2022-12-03T11:58:38.228Z,19.70
2022-12-03T12:01:09.277Z,19.07
2022-12-03T12:03:44.907Z,19.87
2022-12-03T12:06:17.473Z,18.83
2022-12-03T12:08:58.359Z,20.33
2022-12-03T12:11:30.184Z,18.73
2022-12-03T12:14:00.055Z,18.80
2022-12-03T12:16:53.100Z,18.10
2022-12-03T12:19:37.685Z,18.57
2022-12-03T12:22:32.890Z,19.57
2022-12-03T12:25:02.939Z,19.03
2022-12-03T12:27:36.117Z,19.63
2022-12-03T12:30:08.808Z,20.33
2022-12-03T12:32:47.193Z,19.57
2022-12-03T12:35:20.412Z,19.13
2022-12-03T12:37:59.022Z,19.40
2022-12-03T12:40:31.237Z,18.33
2022-12-03T12:43:10.040Z,16.27
2022-12-03T12:45:44.196Z,16.00
2022-12-03T12:48:23.520Z,16.30
2022-12-03T12:51:00.162Z,16.83
2022-12-03T12:53:33.992Z,17.43
2022-12-03T12:56:12.301Z,16.63
2022-12-03T12:58:43.832Z,15.97
2022-12-03T13:01:22.369Z,16.03
2022-12-03T13:03:53.630Z,16.03
2022-12-03T13:06:28.276Z,17.50
2022-12-03T13:09:01.203Z,16.50
2022-12-03T13:11:41.269Z,16.93
2022-12-03T13:14:18.709Z,16.43
2022-12-03T13:16:48.162Z,16.67
2022-12-03T13:19:25.547Z,16.80
2022-12-03T13:21:57.124Z,16.33
2022-12-03T13:24:37.034Z,17.97
2022-12-03T13:27:25.645Z,16.23
2022-12-03T13:29:58.089Z,15.90
2022-12-03T13:32:32.481Z,16.53
2022-12-03T13:35:06.634Z,16.00
2022-12-03T13:37:35.413Z,17.23
2022-12-03T13:40:24.829Z,18.37
2022-12-03T13:42:54.347Z,17.40
2022-12-03T13:45:42.313Z,17.90
2022-12-03T13:48:22.393Z,16.97
2022-12-03T13:50:52.530Z,16.80
2022-12-03T13:53:27.871Z,17.03
2022-12-03T13:56:05.111Z,17.13
2022-12-03T13:58:33.326Z,17.07
2022-12-03T14:01:01.671Z,16.10
2022-12-03T14:03:30.264Z,16.23
2022-12-03T14:05:58.643Z,16.07
2022-12-03T14:08:26.916Z,14.90
2022-12-03T14:11:00.214Z,15.03
2022-12-03T14:13:30.515Z,15.47
2022-12-03T14:15:58.915Z,16.10
2022-12-03T14:18:27.283Z,16.77
2022-12-03T14:20:55.629Z,16.87
2022-12-03T14:23:23.875Z,16.17
2022-12-03T14:25:52.473Z,14.47
2022-12-03T14:28:20.735Z,15.50
2022-12-03T14:30:51.076Z,15.40
2022-12-03T14:33:19.308Z,15.93
2022-12-03T14:35:47.611Z,15.37
2022-12-03T14:38:15.922Z,17.53
2022-12-03T14:40:44.205Z,15.87
2022-12-03T14:43:12.757Z,16.87
2022-12-03T14:45:41.080Z,17.33
2022-12-03T14:48:10.781Z,16.67
2022-12-03T14:50:39.028Z,16.00
2022-12-03T14:53:10.508Z,13.50
2022-12-03T14:55:38.767Z,14.00
2022-12-03T14:58:07.044Z,12.83
2022-12-03T15:00:35.303Z,13.20
2022-12-03T15:03:03.645Z,12.63
2022-12-03T15:05:33.311Z,13.53
2022-12-03T15:08:01.679Z,13.17
2022-12-03T15:10:30.325Z,12.40
2022-12-03T15:12:58.600Z,12.57
2022-12-03T15:15:27.121Z,11.87
2022-12-03T15:17:55.763Z,12.63
2022-12-03T15:20:24.332Z,12.60
2022-12-03T15:22:53.934Z,12.70
2022-12-03T15:25:25.490Z,13.20
2022-12-03T15:27:53.999Z,13.37
2022-12-03T15:30:22.226Z,13.13
2022-12-03T15:32:50.801Z,13.20
2022-12-03T15:35:19.095Z,12.60
2022-12-03T15:37:47.367Z,11.50
2022-12-03T15:40:17.368Z,12.00
2022-12-03T15:42:45.664Z,12.37
2022-12-03T15:45:15.481Z,12.33
2022-12-03T15:47:44.538Z,12.77
2022-12-03T15:50:14.204Z,12.17
2022-12-03T15:52:42.636Z,12.50
2022-12-03T15:55:11.600Z,12.20
2022-12-03T15:57:41.277Z,12.33
2022-12-03T16:00:12.544Z,12.07
2022-12-03T16:02:41.188Z,12.80
2022-12-03T16:05:12.738Z,12.40
2022-12-03T16:07:41.923Z,12.03
2022-12-03T16:10:13.176Z,11.83
2022-12-03T16:12:42.947Z,11.67
2022-12-03T16:15:11.767Z,11.83
2022-12-03T16:17:40.108Z,11.90
2022-12-03T16:20:09.980Z,11.60
2022-12-03T16:22:38.588Z,11.30
2022-12-03T16:25:08.344Z,12.00
2022-12-03T16:27:38.047Z,11.13
2022-12-03T16:30:09.797Z,11.93
2022-12-03T16:32:38.178Z,12.17
2022-12-03T16:35:07.411Z,12.70
2022-12-03T16:37:35.766Z,12.83
2022-12-03T16:40:04.400Z,13.50
2022-12-03T16:42:32.705Z,13.33
2022-12-03T16:45:33.369Z,12.37
2022-12-03T16:48:03.821Z,12.27
2022-12-03T16:50:32.041Z,12.23
2022-12-03T16:53:00.728Z,12.70
2022-12-03T16:55:29.085Z,11.77
2022-12-03T16:57:57.418Z,12.33
2022-12-03T17:00:26.304Z,12.13
2022-12-03T17:02:54.661Z,11.73
2022-12-03T17:05:24.371Z,11.60
2022-12-03T17:07:52.688Z,11.63
2022-12-03T17:10:21.179Z,11.53
2022-12-03T17:13:08.651Z,10.83
2022-12-03T17:15:38.587Z,10.83
2022-12-03T17:18:07.926Z,11.60
2022-12-03T17:20:38.484Z,12.37
2022-12-03T17:23:06.904Z,12.37
2022-12-03T17:25:35.708Z,11.40
2022-12-03T17:28:04.116Z,11.50
2022-12-03T17:30:32.410Z,11.60
2022-12-03T17:33:01.058Z,12.03
2022-12-03T17:35:29.577Z,11.70
2022-12-03T17:37:59.276Z,12.37
2022-12-03T17:40:27.932Z,12.23
2022-12-03T17:42:56.289Z,12.00
2022-12-03T17:45:24.603Z,12.47
2022-12-03T17:47:53.202Z,12.63
2022-12-03T17:50:21.782Z,11.93
2022-12-03T17:52:50.071Z,12.17
2022-12-03T17:55:30.961Z,14.03
2022-12-03T17:58:04.745Z,12.70
2022-12-03T18:00:33.537Z,13.63
2022-12-03T18:03:02.046Z,12.80
2022-12-03T18:05:30.380Z,12.97
2022-12-03T18:07:58.857Z,12.13
2022-12-03T18:10:28.938Z,12.87
2022-12-03T18:13:01.702Z,12.77
2022-12-03T18:15:31.056Z,12.20
2022-12-03T18:17:59.659Z,13.37
2022-12-03T18:20:28.399Z,12.97
2022-12-03T18:22:58.203Z,13.83
2022-12-03T18:25:28.797Z,12.83
2022-12-03T18:27:57.205Z,13.50
2022-12-03T18:30:25.704Z,12.93
2022-12-03T18:32:53.974Z,13.07
2022-12-03T18:35:22.697Z,13.43
2022-12-03T18:37:52.326Z,13.07
2022-12-03T18:40:24.935Z,12.70
2022-12-03T18:42:56.956Z,13.60
2022-12-03T18:45:25.460Z,12.57
2022-12-03T18:47:54.742Z,14.10
2022-12-03T18:50:23.298Z,15.00
2022-12-03T18:52:51.609Z,13.83
2022-12-03T18:55:22.824Z,13.80
2022-12-03T18:57:51.119Z,14.30
2022-12-03T19:00:21.637Z,13.73
2022-12-03T19:03:05.340Z,13.90
2022-12-03T19:05:35.982Z,14.60
2022-12-03T19:08:12.570Z,14.00
2022-12-03T19:10:41.892Z,14.10
2022-12-03T19:13:10.375Z,14.83
2022-12-03T19:15:41.179Z,14.83
2022-12-03T19:18:09.540Z,13.60
2022-12-03T19:20:41.840Z,14.90
2022-12-03T19:23:10.267Z,14.63
2022-12-03T19:25:38.773Z,14.10
2022-12-03T19:28:07.764Z,15.07
2022-12-03T19:30:36.259Z,14.73
2022-12-03T19:33:06.015Z,15.47
2022-12-03T19:35:40.091Z,15.90
2022-12-03T19:38:08.478Z,14.57
2022-12-03T19:40:36.844Z,14.73
2022-12-03T19:43:05.170Z,16.27
2022-12-03T19:45:33.479Z,17.07
2022-12-03T19:48:02.086Z,15.10
2022-12-03T19:50:31.919Z,16.87
2022-12-03T19:53:00.187Z,15.70
2022-12-03T19:55:28.611Z,15.83
2022-12-03T19:57:56.946Z,17.07
2022-12-03T20:00:25.298Z,15.43
2022-12-03T20:02:53.726Z,15.30
2022-12-03T20:05:22.100Z,16.03
2022-12-03T20:07:51.890Z,15.40
2022-12-03T20:10:20.320Z,16.43
2022-12-03T20:12:48.734Z,16.00
2022-12-03T20:15:17.314Z,15.80
2022-12-03T20:17:45.691Z,17.47
2022-12-03T20:20:14.650Z,17.30
2022-12-03T20:22:43.017Z,16.33
2022-12-03T20:25:13.434Z,16.97
2022-12-03T20:27:41.797Z,16.63
2022-12-03T20:30:11.455Z,16.73
2022-12-03T20:32:45.120Z,17.70
2022-12-03T20:35:13.902Z,17.73
2022-12-03T20:37:42.235Z,17.37
2022-12-03T20:40:13.072Z,17.03
2022-12-03T20:42:41.407Z,17.83
2022-12-03T20:45:11.398Z,17.40
2022-12-03T20:47:39.746Z,18.53
2022-12-03T20:50:09.449Z,18.60
2022-12-03T20:52:37.964Z,17.60
2022-12-03T20:55:07.141Z,16.37
2022-12-03T20:57:36.857Z,16.63
2022-12-03T21:00:07.352Z,16.73
2022-12-03T21:02:35.744Z,16.10
2022-12-03T21:05:04.349Z,16.57
2022-12-03T21:07:32.852Z,16.77
2022-12-03T21:10:01.417Z,15.93
2022-12-03T21:12:29.870Z,17.67
2022-12-03T21:14:59.470Z,16.93
2022-12-03T21:17:28.234Z,17.93
2022-12-03T21:19:56.876Z,16.30
2022-12-03T21:22:25.526Z,17.13
2022-12-03T21:24:53.893Z,18.23
2022-12-03T21:27:22.525Z,16.73
2022-12-03T21:29:51.260Z,16.00
2022-12-03T21:32:21.070Z,16.03
2022-12-03T21:34:49.458Z,16.57
2022-12-03T21:37:17.951Z,16.63
2022-12-03T21:39:46.247Z,15.47
2022-12-03T21:42:34.100Z,16.57
2022-12-03T21:45:03.552Z,15.90
2022-12-03T21:47:37.348Z,16.17
2022-12-03T21:50:08.371Z,16.07
2022-12-03T21:52:36.995Z,15.50
2022-12-03T21:55:06.330Z,15.50
2022-12-03T21:57:37.595Z,16.27
2022-12-03T22:00:09.047Z,16.80
2022-12-03T22:02:42.046Z,16.03
2022-12-03T22:05:12.218Z,16.23
2022-12-03T22:07:41.752Z,14.93
2022-12-03T22:10:12.525Z,15.10
2022-12-03T22:12:41.981Z,15.40
2022-12-03T22:15:18.128Z,15.53
2022-12-03T22:17:48.891Z,14.90
2022-12-03T22:20:17.818Z,15.13
2022-12-03T22:22:46.275Z,13.80
2022-12-03T22:25:14.671Z,15.00
2022-12-03T22:27:43.051Z,14.73
2022-12-03T22:30:12.051Z,13.90
2022-12-03T22:32:40.561Z,13.00
2022-12-03T22:35:10.702Z,14.50
2022-12-03T22:37:39.049Z,13.87
2022-12-03T22:40:08.918Z,14.47
2022-12-03T22:42:37.224Z,14.83
2022-12-03T22:45:07.080Z,13.37
2022-12-03T22:47:35.670Z,14.43
2022-12-03T22:50:04.212Z,14.03
2022-12-03T22:52:33.994Z,14.60
2022-12-03T22:55:02.331Z,13.83
2022-12-03T22:57:31.848Z,13.13
2022-12-03T23:00:00.220Z,13.80
2022-12-03T23:02:28.730Z,13.90
2022-12-03T23:04:57.373Z,14.07
2022-12-03T23:07:25.857Z,14.43
2022-12-03T23:09:55.971Z,12.70
2022-12-03T23:12:24.759Z,13.50
2022-12-03T23:14:55.283Z,14.33
2022-12-03T23:17:23.650Z,13.67
2022-12-03T23:19:52.144Z,13.17
2022-12-03T23:22:20.541Z,13.60
2022-12-03T23:24:49.399Z,13.93
2022-12-03T23:27:19.126Z,13.13
2022-12-03T23:29:47.604Z,13.60
2022-12-03T23:32:16.702Z,13.33
2022-12-03T23:34:45.419Z,13.33
2022-12-03T23:37:13.733Z,12.73
2022-12-03T23:39:42.124Z,13.03
2022-12-03T23:42:10.437Z,13.07
2022-12-03T23:44:40.096Z,14.27
2022-12-03T23:47:08.521Z,14.37
2022-12-03T23:49:37.019Z,12.67
2022-12-03T23:52:05.449Z,13.13
2022-12-03T23:54:34.057Z,14.20
2022-12-03T23:57:02.335Z,14.00
2022-12-03T23:59:31.058Z,13.67
